sensor_id;sensor_type;location;lat;lon;timestamp;P1;durP1;ratioP1;P2;durP2;ratioP2
9900;SDS011;4989;48.772;9.154;2023-07-29T00:04:07;294.93;;;241.23;;
9900;SDS011;4989;48.772;9.154;2023-07-29T00:09:11;364.50;;;326.70;;
9900;SDS011;4989;48.772;9.154;2023-07-29T00:14:14;442.53;;;403.30;;
9900;SDS011;4989;48.772;9.154;2023-07-29T00:19:16;509.03;;;467.73;;
9900;SDS011;4989;48.772;9.154;2023-07-29T00:24:18;561.80;;;518.60;;
9900;SDS011;4989;48.772;9.154;2023-07-29T00:29:20;567.77;;;523.80;;
9900;SDS011;4989;48.772;9.154;2023-07-29T00:34:25;552.40;;;509.57;;
9900;SDS011;4989;48.772;9.154;2023-07-29T00:39:27;455.67;;;416.83;;
9900;SDS011;4989;48.772;9.154;2023-07-29T00:44:30;420.03;;;382.50;;
9900;SDS011;4989;48.772;9.154;2023-07-29T00:49:35;427.77;;;389.83;;
9900;SDS011;4989;48.772;9.154;2023-07-29T00:54:37;402.13;;;365.30;;
9900;SDS011;4989;48.772;9.154;2023-07-29T00:59:43;498.03;;;456.73;;
9900;SDS011;4989;48.772;9.154;2023-07-29T01:04:47;495.27;;;455.03;;
9900;SDS011;4989;48.772;9.154;2023-07-29T01:15:20;361.33;;;326.07;;
9900;SDS011;4989;48.772;9.154;2023-07-29T01:20:46;527.73;;;485.90;;
9900;SDS011;4989;48.772;9.154;2023-07-29T01:25:53;514.20;;;472.63;;
9900;SDS011;4989;48.772;9.154;2023-07-29T01:31:02;532.57;;;490.03;;
9900;SDS011;4989;48.772;9.154;2023-07-29T01:36:18;479.70;;;439.23;;
9900;SDS011;4989;48.772;9.154;2023-07-29T01:41:28;434.77;;;396.73;;
9900;SDS011;4989;48.772;9.154;2023-07-29T01:46:33;398.67;;;362.17;;
9900;SDS011;4989;48.772;9.154;2023-07-29T01:51:36;319.10;;;281.43;;
9900;SDS011;4989;48.772;9.154;2023-07-29T01:56:38;305.20;;;264.30;;
9900;SDS011;4989;48.772;9.154;2023-07-29T02:01:40;332.00;;;294.73;;
9900;SDS011;4989;48.772;9.154;2023-07-29T02:06:43;343.47;;;307.30;;
9900;SDS011;4989;48.772;9.154;2023-07-29T02:11:45;336.07;;;300.77;;
9900;SDS011;4989;48.772;9.154;2023-07-29T02:16:47;314.23;;;279.73;;
9900;SDS011;4989;48.772;9.154;2023-07-29T02:21:49;325.73;;;290.80;;
9900;SDS011;4989;48.772;9.154;2023-07-29T02:26:51;326.37;;;291.27;;
9900;SDS011;4989;48.772;9.154;2023-07-29T02:31:54;333.50;;;298.40;;
9900;SDS011;4989;48.772;9.154;2023-07-29T02:36:56;334.87;;;299.73;;
9900;SDS011;4989;48.772;9.154;2023-07-29T02:41:58;299.13;;;253.00;;
9900;SDS011;4989;48.772;9.154;2023-07-29T02:47:00;284.30;;;208.17;;
9900;SDS011;4989;48.772;9.154;2023-07-29T02:52:03;283.23;;;216.57;;
9900;SDS011;4989;48.772;9.154;2023-07-29T02:57:06;284.03;;;213.17;;
9900;SDS011;4989;48.772;9.154;2023-07-29T03:02:09;286.20;;;217.93;;
9900;SDS011;4989;48.772;9.154;2023-07-29T03:07:11;309.13;;;262.53;;
9900;SDS011;4989;48.772;9.154;2023-07-29T03:12:13;343.03;;;307.63;;
9900;SDS011;4989;48.772;9.154;2023-07-29T03:17:15;323.60;;;288.70;;
9900;SDS011;4989;48.772;9.154;2023-07-29T03:22:17;312.17;;;277.80;;
9900;SDS011;4989;48.772;9.154;2023-07-29T03:27:20;318.67;;;283.83;;
9900;SDS011;4989;48.772;9.154;2023-07-29T03:32:22;317.80;;;283.13;;
9900;SDS011;4989;48.772;9.154;2023-07-29T03:37:24;322.90;;;288.20;;
9900;SDS011;4989;48.772;9.154;2023-07-29T03:42:26;302.63;;;256.93;;
9900;SDS011;4989;48.772;9.154;2023-07-29T03:47:28;288.67;;;222.90;;
9900;SDS011;4989;48.772;9.154;2023-07-29T03:52:32;288.43;;;203.13;;
9900;SDS011;4989;48.772;9.154;2023-07-29T03:57:35;280.33;;;198.63;;
9900;SDS011;4989;48.772;9.154;2023-07-29T04:02:37;284.70;;;191.33;;
9900;SDS011;4989;48.772;9.154;2023-07-29T04:07:40;288.57;;;217.37;;
9900;SDS011;4989;48.772;9.154;2023-07-29T04:12:43;302.43;;;254.47;;
9900;SDS011;4989;48.772;9.154;2023-07-29T04:17:45;311.20;;;273.37;;
9900;SDS011;4989;48.772;9.154;2023-07-29T04:22:47;307.57;;;264.43;;
9900;SDS011;4989;48.772;9.154;2023-07-29T04:27:49;314.43;;;279.23;;
9900;SDS011;4989;48.772;9.154;2023-07-29T04:32:52;312.50;;;271.87;;
9900;SDS011;4989;48.772;9.154;2023-07-29T04:37:55;320.37;;;274.70;;
9900;SDS011;4989;48.772;9.154;2023-07-29T04:42:57;298.43;;;231.93;;
9900;SDS011;4989;48.772;9.154;2023-07-29T04:48:02;294.37;;;195.13;;
9900;SDS011;4989;48.772;9.154;2023-07-29T04:53:05;280.43;;;196.77;;
9900;SDS011;4989;48.772;9.154;2023-07-29T04:58:07;284.20;;;201.50;;
9900;SDS011;4989;48.772;9.154;2023-07-29T05:03:10;289.97;;;225.17;;
9900;SDS011;4989;48.772;9.154;2023-07-29T05:08:12;320.60;;;283.47;;
9900;SDS011;4989;48.772;9.154;2023-07-29T05:13:15;326.37;;;291.40;;
9900;SDS011;4989;48.772;9.154;2023-07-29T05:18:17;317.97;;;282.83;;
9900;SDS011;4989;48.772;9.154;2023-07-29T05:23:20;313.07;;;271.00;;
9900;SDS011;4989;48.772;9.154;2023-07-29T05:28:22;313.93;;;277.30;;
9900;SDS011;4989;48.772;9.154;2023-07-29T05:33:24;312.73;;;278.13;;
9900;SDS011;4989;48.772;9.154;2023-07-29T05:38:27;310.27;;;262.33;;
9900;SDS011;4989;48.772;9.154;2023-07-29T05:43:29;287.67;;;213.93;;
9900;SDS011;4989;48.772;9.154;2023-07-29T05:48:31;283.87;;;196.37;;
9900;SDS011;4989;48.772;9.154;2023-07-29T05:53:34;280.33;;;193.20;;
9900;SDS011;4989;48.772;9.154;2023-07-29T05:58:36;280.83;;;198.60;;
9900;SDS011;4989;48.772;9.154;2023-07-29T06:03:41;288.77;;;223.67;;
9900;SDS011;4989;48.772;9.154;2023-07-29T06:08:43;315.97;;;277.27;;
9900;SDS011;4989;48.772;9.154;2023-07-29T06:13:47;313.03;;;277.87;;
9900;SDS011;4989;48.772;9.154;2023-07-29T06:18:50;332.30;;;297.40;;
9900;SDS011;4989;48.772;9.154;2023-07-29T06:23:54;332.73;;;297.17;;
9900;SDS011;4989;48.772;9.154;2023-07-29T06:28:56;326.63;;;291.93;;
9900;SDS011;4989;48.772;9.154;2023-07-29T06:33:59;306.07;;;271.53;;
9900;SDS011;4989;48.772;9.154;2023-07-29T06:39:01;287.43;;;228.80;;
9900;SDS011;4989;48.772;9.154;2023-07-29T06:44:03;290.40;;;244.10;;
9900;SDS011;4989;48.772;9.154;2023-07-29T06:49:06;286.73;;;224.47;;
9900;SDS011;4989;48.772;9.154;2023-07-29T06:54:08;300.03;;;258.57;;
9900;SDS011;4989;48.772;9.154;2023-07-29T06:59:13;352.80;;;318.10;;
9900;SDS011;4989;48.772;9.154;2023-07-29T07:04:15;392.40;;;355.40;;
9900;SDS011;4989;48.772;9.154;2023-07-29T07:09:17;375.90;;;339.63;;
9900;SDS011;4989;48.772;9.154;2023-07-29T07:14:21;360.13;;;324.23;;
9900;SDS011;4989;48.772;9.154;2023-07-29T07:19:23;347.57;;;311.97;;
9900;SDS011;4989;48.772;9.154;2023-07-29T07:24:25;353.50;;;317.90;;
9900;SDS011;4989;48.772;9.154;2023-07-29T07:29:27;342.47;;;307.37;;
9900;SDS011;4989;48.772;9.154;2023-07-29T07:34:29;303.40;;;265.93;;
9900;SDS011;4989;48.772;9.154;2023-07-29T07:39:32;290.23;;;236.70;;
9900;SDS011;4989;48.772;9.154;2023-07-29T07:44:34;288.83;;;230.77;;
9900;SDS011;4989;48.772;9.154;2023-07-29T07:49:36;291.80;;;244.47;;
9900;SDS011;4989;48.772;9.154;2023-07-29T07:54:38;290.67;;;234.37;;
9900;SDS011;4989;48.772;9.154;2023-07-29T07:59:41;301.93;;;249.47;;
9900;SDS011;4989;48.772;9.154;2023-07-29T08:04:43;335.90;;;300.30;;
9900;SDS011;4989;48.772;9.154;2023-07-29T08:09:45;368.07;;;332.13;;
9900;SDS011;4989;48.772;9.154;2023-07-29T08:14:47;358.33;;;322.73;;
9900;SDS011;4989;48.772;9.154;2023-07-29T08:19:49;375.87;;;339.53;;
9900;SDS011;4989;48.772;9.154;2023-07-29T08:24:52;367.90;;;332.07;;
9900;SDS011;4989;48.772;9.154;2023-07-29T08:29:54;389.07;;;352.00;;
9900;SDS011;4989;48.772;9.154;2023-07-29T08:34:56;407.97;;;370.90;;
9900;SDS011;4989;48.772;9.154;2023-07-29T08:39:58;362.20;;;326.47;;
9900;SDS011;4989;48.772;9.154;2023-07-29T08:45:01;335.83;;;301.50;;
9900;SDS011;4989;48.772;9.154;2023-07-29T08:50:12;402.17;;;365.23;;
9900;SDS011;4989;48.772;9.154;2023-07-29T08:55:16;457.60;;;419.13;;
9900;SDS011;4989;48.772;9.154;2023-07-29T09:00:20;509.83;;;469.27;;
9900;SDS011;4989;48.772;9.154;2023-07-29T09:05:23;556.83;;;513.73;;
9900;SDS011;4989;48.772;9.154;2023-07-29T09:10:25;599.83;;;555.43;;
9900;SDS011;4989;48.772;9.154;2023-07-29T09:15:28;620.70;;;575.50;;
9900;SDS011;4989;48.772;9.154;2023-07-29T09:20:33;530.70;;;489.40;;
9900;SDS011;4989;48.772;9.154;2023-07-29T09:25:36;549.83;;;507.73;;
9900;SDS011;4989;48.772;9.154;2023-07-29T09:30:39;593.27;;;549.27;;
9900;SDS011;4989;48.772;9.154;2023-07-29T09:35:47;657.47;;;609.57;;
9900;SDS011;4989;48.772;9.154;2023-07-29T09:40:49;707.60;;;657.53;;
9900;SDS011;4989;48.772;9.154;2023-07-29T09:45:51;730.00;;;679.83;;
9900;SDS011;4989;48.772;9.154;2023-07-29T09:50:57;721.30;;;672.27;;
9900;SDS011;4989;48.772;9.154;2023-07-29T09:55:59;618.17;;;574.50;;
9900;SDS011;4989;48.772;9.154;2023-07-29T10:01:01;605.63;;;563.07;;
9900;SDS011;4989;48.772;9.154;2023-07-29T10:06:04;446.40;;;410.20;;
9900;SDS011;4989;48.772;9.154;2023-07-29T10:11:09;459.63;;;423.13;;
9900;SDS011;4989;48.772;9.154;2023-07-29T10:16:12;525.43;;;486.30;;
9900;SDS011;4989;48.772;9.154;2023-07-29T10:21:16;569.73;;;528.83;;
9900;SDS011;4989;48.772;9.154;2023-07-29T10:26:19;572.77;;;532.00;;
9900;SDS011;4989;48.772;9.154;2023-07-29T10:31:23;556.23;;;515.67;;
9900;SDS011;4989;48.772;9.154;2023-07-29T10:36:25;579.33;;;538.13;;
9900;SDS011;4989;48.772;9.154;2023-07-29T10:47:00;497.53;;;459.30;;
9900;SDS011;4989;48.772;9.154;2023-07-29T10:52:16;543.50;;;503.13;;
9900;SDS011;4989;48.772;9.154;2023-07-29T10:57:36;492.37;;;454.73;;
9900;SDS011;4989;48.772;9.154;2023-07-29T11:02:42;499.73;;;461.60;;
9900;SDS011;4989;48.772;9.154;2023-07-29T11:08:03;485.40;;;448.30;;
9900;SDS011;4989;48.772;9.154;2023-07-29T11:13:19;543.57;;;500.63;;
9900;SDS011;4989;48.772;9.154;2023-07-29T11:18:21;544.37;;;503.93;;
9900;SDS011;4989;48.772;9.154;2023-07-29T11:23:27;542.53;;;501.53;;
9900;SDS011;4989;48.772;9.154;2023-07-29T11:28:42;479.27;;;440.63;;
9900;SDS011;4989;48.772;9.154;2023-07-29T11:34:35;555.93;;;514.43;;
9900;SDS011;4989;48.772;9.154;2023-07-29T11:39:42;474.83;;;436.13;;
9900;SDS011;4989;48.772;9.154;2023-07-29T11:44:51;536.20;;;495.37;;
9900;SDS011;4989;48.772;9.154;2023-07-29T11:50:00;547.33;;;507.17;;
9900;SDS011;4989;48.772;9.154;2023-07-29T11:55:04;484.00;;;445.80;;
9900;SDS011;4989;48.772;9.154;2023-07-29T12:00:09;479.27;;;439.97;;
9900;SDS011;4989;48.772;9.154;2023-07-29T12:05:16;535.33;;;494.67;;
9900;SDS011;4989;48.772;9.154;2023-07-29T12:10:23;581.50;;;526.03;;
9900;SDS011;4989;48.772;9.154;2023-07-29T12:26:28;655.87;;;594.13;;
9900;SDS011;4989;48.772;9.154;2023-07-29T12:31:44;585.53;;;544.00;;
9900;SDS011;4989;48.772;9.154;2023-07-29T12:48:37;568.97;;;527.30;;
9900;SDS011;4989;48.772;9.154;2023-07-29T12:53:49;666.53;;;618.03;;
9900;SDS011;4989;48.772;9.154;2023-07-29T12:58:58;702.60;;;658.03;;
9900;SDS011;4989;48.772;9.154;2023-07-29T13:04:23;702.13;;;642.63;;
9900;SDS011;4989;48.772;9.154;2023-07-29T13:09:55;677.27;;;631.70;;
9900;SDS011;4989;48.772;9.154;2023-07-29T13:14:59;671.60;;;628.10;;
9900;SDS011;4989;48.772;9.154;2023-07-29T13:20:06;608.70;;;568.17;;
9900;SDS011;4989;48.772;9.154;2023-07-29T13:26:04;590.80;;;550.60;;
9900;SDS011;4989;48.772;9.154;2023-07-29T13:31:12;635.90;;;588.67;;
9900;SDS011;4989;48.772;9.154;2023-07-29T13:36:18;663.97;;;619.50;;
9900;SDS011;4989;48.772;9.154;2023-07-29T13:41:28;667.10;;;621.27;;
9900;SDS011;4989;48.772;9.154;2023-07-29T13:46:42;581.00;;;540.03;;
9900;SDS011;4989;48.772;9.154;2023-07-29T13:51:44;594.90;;;553.63;;
9900;SDS011;4989;48.772;9.154;2023-07-29T13:56:58;666.03;;;622.60;;
9900;SDS011;4989;48.772;9.154;2023-07-29T14:02:02;552.27;;;513.10;;
9900;SDS011;4989;48.772;9.154;2023-07-29T14:07:06;555.87;;;516.70;;
9900;SDS011;4989;48.772;9.154;2023-07-29T14:12:09;553.90;;;513.93;;
9900;SDS011;4989;48.772;9.154;2023-07-29T14:29:18;616.57;;;574.03;;
9900;SDS011;4989;48.772;9.154;2023-07-29T14:34:28;635.70;;;589.73;;
9900;SDS011;4989;48.772;9.154;2023-07-29T14:39:40;1383.60;;;637.53;;
9900;SDS011;4989;48.772;9.154;2023-07-29T14:45:13;756.73;;;602.27;;
9900;SDS011;4989;48.772;9.154;2023-07-29T14:50:16;644.43;;;599.97;;
9900;SDS011;4989;48.772;9.154;2023-07-29T15:01:30;668.87;;;620.37;;
9900;SDS011;4989;48.772;9.154;2023-07-29T15:07:33;640.60;;;595.23;;
9900;SDS011;4989;48.772;9.154;2023-07-29T15:12:44;646.57;;;604.17;;
9900;SDS011;4989;48.772;9.154;2023-07-29T15:17:49;691.50;;;647.63;;
9900;SDS011;4989;48.772;9.154;2023-07-29T15:23:01;673.50;;;630.60;;
9900;SDS011;4989;48.772;9.154;2023-07-29T15:28:06;656.87;;;615.87;;
9900;SDS011;4989;48.772;9.154;2023-07-29T15:33:18;713.53;;;668.47;;
9900;SDS011;4989;48.772;9.154;2023-07-29T15:38:20;756.73;;;711.27;;
9900;SDS011;4989;48.772;9.154;2023-07-29T15:43:23;622.40;;;579.73;;
9900;SDS011;4989;48.772;9.154;2023-07-29T15:48:28;648.27;;;605.30;;
9900;SDS011;4989;48.772;9.154;2023-07-29T15:53:35;568.07;;;528.50;;
9900;SDS011;4989;48.772;9.154;2023-07-29T15:58:47;602.80;;;561.07;;
9900;SDS011;4989;48.772;9.154;2023-07-29T16:03:49;636.13;;;593.20;;
9900;SDS011;4989;48.772;9.154;2023-07-29T16:09:08;557.67;;;518.47;;
9900;SDS011;4989;48.772;9.154;2023-07-29T16:14:13;566.03;;;526.73;;
9900;SDS011;4989;48.772;9.154;2023-07-29T16:19:51;521.90;;;483.00;;
9900;SDS011;4989;48.772;9.154;2023-07-29T16:25:01;494.07;;;451.37;;
9900;SDS011;4989;48.772;9.154;2023-07-29T16:30:34;441.03;;;402.67;;
9900;SDS011;4989;48.772;9.154;2023-07-29T16:35:37;420.00;;;382.23;;
9900;SDS011;4989;48.772;9.154;2023-07-29T16:40:42;452.60;;;414.27;;
9900;SDS011;4989;48.772;9.154;2023-07-29T16:46:04;462.53;;;424.50;;
9900;SDS011;4989;48.772;9.154;2023-07-29T16:51:17;545.43;;;503.07;;
9900;SDS011;4989;48.772;9.154;2023-07-29T16:56:19;516.33;;;475.63;;
9900;SDS011;4989;48.772;9.154;2023-07-29T17:01:26;557.23;;;515.13;;
9900;SDS011;4989;48.772;9.154;2023-07-29T17:06:51;533.53;;;492.17;;
9900;SDS011;4989;48.772;9.154;2023-07-29T17:11:56;541.17;;;499.73;;
9900;SDS011;4989;48.772;9.154;2023-07-29T17:17:11;454.43;;;416.53;;
9900;SDS011;4989;48.772;9.154;2023-07-29T17:22:18;538.30;;;496.47;;
9900;SDS011;4989;48.772;9.154;2023-07-29T17:27:44;510.60;;;469.90;;
9900;SDS011;4989;48.772;9.154;2023-07-29T17:32:51;532.33;;;491.33;;
9900;SDS011;4989;48.772;9.154;2023-07-29T17:38:01;420.53;;;382.30;;
9900;SDS011;4989;48.772;9.154;2023-07-29T17:49:32;366.03;;;328.97;;
9900;SDS011;4989;48.772;9.154;2023-07-29T17:54:42;344.63;;;308.77;;
9900;SDS011;4989;48.772;9.154;2023-07-29T17:59:47;402.80;;;363.93;;
9900;SDS011;4989;48.772;9.154;2023-07-29T18:10:40;317.67;;;275.07;;
9900;SDS011;4989;48.772;9.154;2023-07-29T18:15:49;382.00;;;343.80;;
9900;SDS011;4989;48.772;9.154;2023-07-29T18:21:00;355.90;;;318.73;;
9900;SDS011;4989;48.772;9.154;2023-07-29T18:26:08;315.17;;;265.33;;
9900;SDS011;4989;48.772;9.154;2023-07-29T18:31:10;322.87;;;287.43;;
9900;SDS011;4989;48.772;9.154;2023-07-29T18:36:12;333.00;;;297.30;;
9900;SDS011;4989;48.772;9.154;2023-07-29T18:41:19;415.10;;;375.90;;
9900;SDS011;4989;48.772;9.154;2023-07-29T18:46:28;405.87;;;366.97;;
9900;SDS011;4989;48.772;9.154;2023-07-29T18:51:36;325.17;;;289.73;;
9900;SDS011;4989;48.772;9.154;2023-07-29T19:08:48;413.50;;;373.83;;
9900;SDS011;4989;48.772;9.154;2023-07-29T19:13:58;391.00;;;352.67;;
9900;SDS011;4989;48.772;9.154;2023-07-29T19:19:00;359.97;;;322.87;;
9900;SDS011;4989;48.772;9.154;2023-07-29T19:24:03;332.77;;;295.77;;
9900;SDS011;4989;48.772;9.154;2023-07-29T19:29:05;316.37;;;280.10;;
9900;SDS011;4989;48.772;9.154;2023-07-29T19:34:13;322.57;;;284.40;;
9900;SDS011;4989;48.772;9.154;2023-07-29T19:39:18;394.37;;;355.80;;
9900;SDS011;4989;48.772;9.154;2023-07-29T19:44:20;383.47;;;345.43;;
9900;SDS011;4989;48.772;9.154;2023-07-29T19:49:33;374.10;;;336.50;;
9900;SDS011;4989;48.772;9.154;2023-07-29T19:54:35;311.67;;;264.17;;
9900;SDS011;4989;48.772;9.154;2023-07-29T19:59:44;333.50;;;293.57;;
9900;SDS011;4989;48.772;9.154;2023-07-29T20:04:52;379.73;;;341.53;;
9900;SDS011;4989;48.772;9.154;2023-07-29T20:10:00;384.53;;;346.10;;
9900;SDS011;4989;48.772;9.154;2023-07-29T20:15:12;310.80;;;255.20;;
9900;SDS011;4989;48.772;9.154;2023-07-29T20:20:17;383.53;;;345.13;;
9900;SDS011;4989;48.772;9.154;2023-07-29T20:25:19;370.77;;;332.80;;
9900;SDS011;4989;48.772;9.154;2023-07-29T20:30:22;374.17;;;336.03;;
9900;SDS011;4989;48.772;9.154;2023-07-29T20:35:24;381.17;;;342.87;;
9900;SDS011;4989;48.772;9.154;2023-07-29T20:40:28;356.07;;;318.57;;
9900;SDS011;4989;48.772;9.154;2023-07-29T20:45:30;380.67;;;342.27;;
9900;SDS011;4989;48.772;9.154;2023-07-29T20:50:33;317.63;;;275.03;;
9900;SDS011;4989;48.772;9.154;2023-07-29T20:55:40;310.40;;;256.80;;
9900;SDS011;4989;48.772;9.154;2023-07-29T21:00:45;348.83;;;311.83;;
9900;SDS011;4989;48.772;9.154;2023-07-29T21:05:48;353.43;;;316.33;;
9900;SDS011;4989;48.772;9.154;2023-07-29T21:10:53;360.43;;;322.87;;
9900;SDS011;4989;48.772;9.154;2023-07-29T21:15:58;374.80;;;336.50;;
9900;SDS011;4989;48.772;9.154;2023-07-29T21:21:02;328.20;;;288.53;;
9900;SDS011;4989;48.772;9.154;2023-07-29T21:26:06;309.10;;;250.47;;
9900;SDS011;4989;48.772;9.154;2023-07-29T21:31:13;313.83;;;259.30;;
9900;SDS011;4989;48.772;9.154;2023-07-29T21:36:18;361.80;;;324.07;;
9900;SDS011;4989;48.772;9.154;2023-07-29T21:41:23;381.47;;;342.93;;
9900;SDS011;4989;48.772;9.154;2023-07-29T21:46:26;377.13;;;339.00;;
9900;SDS011;4989;48.772;9.154;2023-07-29T21:51:34;311.83;;;257.13;;
9900;SDS011;4989;48.772;9.154;2023-07-29T21:56:40;311.03;;;250.73;;
9900;SDS011;4989;48.772;9.154;2023-07-29T22:01:46;359.23;;;321.97;;
9900;SDS011;4989;48.772;9.154;2023-07-29T22:06:51;381.03;;;342.93;;
9900;SDS011;4989;48.772;9.154;2023-07-29T22:12:00;388.47;;;349.80;;
9900;SDS011;4989;48.772;9.154;2023-07-29T22:17:04;312.67;;;252.73;;
9900;SDS011;4989;48.772;9.154;2023-07-29T22:22:12;311.20;;;247.03;;
9900;SDS011;4989;48.772;9.154;2023-07-29T22:27:17;354.30;;;316.83;;
9900;SDS011;4989;48.772;9.154;2023-07-29T22:32:19;364.93;;;326.80;;
9900;SDS011;4989;48.772;9.154;2023-07-29T22:37:22;374.50;;;335.90;;
9900;SDS011;4989;48.772;9.154;2023-07-29T22:42:30;358.97;;;320.73;;
9900;SDS011;4989;48.772;9.154;2023-07-29T22:47:32;321.03;;;255.67;;
9900;SDS011;4989;48.772;9.154;2023-07-29T22:52:36;400.47;;;266.30;;
9900;SDS011;4989;48.772;9.154;2023-07-29T22:57:51;353.37;;;315.90;;
9900;SDS011;4989;48.772;9.154;2023-07-29T23:03:09;316.23;;;256.93;;
9900;SDS011;4989;48.772;9.154;2023-07-29T23:08:11;311.73;;;246.07;;
9900;SDS011;4989;48.772;9.154;2023-07-29T23:13:15;329.57;;;285.67;;
9900;SDS011;4989;48.772;9.154;2023-07-29T23:18:17;347.97;;;310.77;;
9900;SDS011;4989;48.772;9.154;2023-07-29T23:23:22;367.20;;;329.23;;
9900;SDS011;4989;48.772;9.154;2023-07-29T23:28:36;313.10;;;251.00;;
9900;SDS011;4989;48.772;9.154;2023-07-29T23:33:43;309.70;;;247.27;;
9900;SDS011;4989;48.772;9.154;2023-07-29T23:38:45;316.93;;;258.37;;
9900;SDS011;4989;48.772;9.154;2023-07-29T23:43:47;328.73;;;284.63;;
9900;SDS011;4989;48.772;9.154;2023-07-29T23:48:52;338.53;;;293.33;;
9900;SDS011;4989;48.772;9.154;2023-07-29T23:54:06;298.47;;;204.47;;
9900;SDS011;4989;48.772;9.154;2023-07-29T23:59:09;305.33;;;216.27;;
